Time;durP1;ratioP1;P1;durP2;ratioP2;P2;SDS_P1;SDS_P2;PMS_P1;PMS_P2;Temp;Humidity;BMP_temperature;BMP_pressure;BME280_temperature;BME280_humidity;BME280_pressure;Samples;Min_cycle;Max_cycle;Signal;HPM_P1;HPM_P2
2022/10/18 00:01:34;;;;;;;7.80;5.50;;;;;;;14.71;65.17;97745.49;105285;1302;22581;-76
2022/10/18 00:04:05;;;;;;;8.60;5.60;;;;;;;14.67;65.36;97748.84;105276;1302;25490;-76
2022/10/18 00:06:36;;;;;;;7.30;5.20;;;;;;;14.68;65.40;97744.67;105264;1295;25460;-76
2022/10/18 00:09:07;;;;;;;7.00;5.30;;;;;;;14.69;65.46;97741.45;105262;1282;22542;-76
2022/10/18 00:11:40;;;;;;;8.40;5.50;;;;;;;14.70;65.53;97733.77;105280;1289;22461;-76
2022/10/18 00:14:13;;;;;;;7.00;5.20;;;;;;;14.69;65.52;97733.88;105280;1285;22578;-76
2022/10/18 00:16:44;;;;;;;7.50;5.40;;;;;;;14.66;65.50;97729.20;105318;1288;23681;-76
2022/10/18 00:19:16;;;;;;;7.20;5.80;;;;;;;14.65;65.69;97729.37;105157;1279;25373;-77
2022/10/18 00:21:49;;;;;;;7.40;4.10;;;;;;;14.63;65.68;97728.83;105192;1303;22666;-77
2022/10/18 00:24:20;;;;;;;7.00;5.50;;;;;;;14.66;65.61;97726.75;105253;1295;22777;-77
2022/10/18 00:26:53;;;;;;;8.70;5.40;;;;;;;14.65;65.75;97725.84;105180;1295;22521;-76
2022/10/18 00:29:24;;;;;;;7.50;5.10;;;;;;;14.61;65.76;97720.52;105160;1301;25231;-76
2022/10/18 00:31:57;;;;;;;9.50;5.20;;;;;;;14.60;65.81;97725.23;105272;1303;23606;-76
2022/10/18 00:34:30;;;;;;;9.50;4.30;;;;;;;14.59;65.79;97722.83;105254;1279;22479;-77
2022/10/18 00:37:01;;;;;;;6.70;5.10;;;;;;;14.61;65.76;97724.48;105302;1281;22500;-76
2022/10/18 00:39:35;;;;;;;6.90;3.80;;;;;;;14.59;65.78;97721.07;105201;1288;22469;-76
2022/10/18 00:42:06;;;;;;;7.90;3.70;;;;;;;14.52;65.91;97725.23;105280;1302;22467;-76
2022/10/18 00:45:13;;;;;;;8.00;5.00;;;;;;;14.48;65.88;97719.09;105269;1303;22509;-77
2022/10/18 00:47:47;;;;;;;6.50;4.30;;;;;;;14.44;66.15;97714.05;105288;1279;22863;-77
2022/10/18 00:50:19;;;;;;;8.50;5.40;;;;;;;14.44;66.14;97707.80;105144;1288;25252;-77
2022/10/18 00:52:58;;;;;;;7.80;4.70;;;;;;;14.43;66.09;97711.34;105190;1296;22461;-77
2022/10/18 00:55:31;;;;;;;6.60;4.00;;;;;;;14.39;66.30;97709.70;105216;1303;22469;-77
2022/10/18 00:58:04;;;;;;;8.60;5.30;;;;;;;14.37;66.38;97708.76;105184;1303;22622;-77
2022/10/18 01:00:40;;;;;;;6.40;4.70;;;;;;;14.35;66.44;97703.19;105212;1288;22592;-77
2022/10/18 01:03:11;;;;;;;8.20;5.20;;;;;;;14.30;66.54;97705.09;105208;1279;22494;-77
2022/10/18 01:05:46;;;;;;;7.50;5.30;;;;;;;14.29;66.58;97699.55;105272;1303;22508;-77
2022/10/18 01:08:34;;;;;;;7.60;4.90;;;;;;;14.26;66.62;97700.91;105247;1303;22793;-77
2022/10/18 01:11:24;;;;;;;9.30;5.00;;;;;;;14.23;66.65;97702.73;105175;1298;22487;-77
2022/10/18 01:14:05;;;;;;;8.40;5.20;;;;;;;14.22;66.75;97696.39;105170;1287;21809;-77
2022/10/18 01:16:41;;;;;;;5.90;4.00;;;;;;;14.22;66.91;97683.54;105199;1285;22569;-77
2022/10/18 01:19:41;;;;;;;12.50;4.90;;;;;;;14.24;66.80;97690.35;105171;1295;22458;-77
2022/10/18 01:22:17;;;;;;;7.70;5.20;;;;;;;14.26;66.78;97689.38;105282;1299;22502;-77
2022/10/18 01:25:14;;;;;;;5.70;4.00;;;;;;;14.21;66.78;97685.98;105296;1286;22463;-77
2022/10/18 01:27:55;;;;;;;6.10;4.40;;;;;;;14.20;66.77;97691.96;105242;1279;22478;-77
2022/10/18 01:30:41;;;;;;;7.30;5.30;;;;;;;14.20;66.74;97689.77;105223;1303;22461;-77
2022/10/18 01:33:27;;;;;;;7.20;4.00;;;;;;;14.24;66.71;97689.19;105092;1289;204155;-77
2022/10/18 01:36:03;;;;;;;7.80;4.40;;;;;;;14.23;66.72;97689.62;105263;1303;22481;-77
2022/10/18 01:38:37;;;;;;;5.80;4.40;;;;;;;14.23;66.67;97687.91;105199;1281;23016;-77
2022/10/18 01:41:10;;;;;;;5.80;4.30;;;;;;;14.23;66.61;97681.24;105341;1295;22472;-77
2022/10/18 01:43:42;;;;;;;7.40;4.90;;;;;;;14.25;66.49;97679.58;105259;1303;22489;-77
2022/10/18 01:46:18;;;;;;;5.90;3.80;;;;;;;14.29;66.35;97681.46;105257;1288;22487;-77
2022/10/18 01:48:51;;;;;;;5.60;3.90;;;;;;;14.30;66.33;97673.94;105238;1275;22510;-77
2022/10/18 01:51:26;;;;;;;6.50;4.20;;;;;;;14.28;66.32;97673.26;105248;1279;22700;-77
2022/10/18 01:53:57;;;;;;;8.20;4.10;;;;;;;14.30;66.16;97664.86;105269;1288;22526;-77
2022/10/18 01:56:37;;;;;;;7.50;4.40;;;;;;;14.27;66.16;97667.67;105264;1295;22501;-77
2022/10/18 01:59:31;;;;;;;6.70;3.70;;;;;;;14.29;66.06;97659.17;105214;1301;24162;-77
2022/10/18 02:02:16;;;;;;;5.30;3.80;;;;;;;14.29;65.96;97666.52;105317;1288;25231;-77
2022/10/18 02:04:53;;;;;;;6.50;3.90;;;;;;;14.26;66.01;97665.80;105336;1279;22458;-77
2022/10/18 02:07:32;;;;;;;4.70;3.30;;;;;;;14.29;65.87;97665.62;105255;1295;23789;-76
2022/10/18 02:10:10;;;;;;;5.90;4.20;;;;;;;14.30;65.70;97667.20;105245;1286;22487;-77
2022/10/18 02:12:45;;;;;;;5.80;4.00;;;;;;;14.30;65.60;97658.52;105280;1279;22462;-76
2022/10/18 02:15:19;;;;;;;4.70;3.10;;;;;;;14.30;65.52;97655.91;105269;1303;22523;-77
2022/10/18 02:17:51;;;;;;;5.70;3.70;;;;;;;14.31;65.38;97657.55;105254;1295;22467;-77
2022/10/18 02:20:25;;;;;;;6.00;3.50;;;;;;;14.33;65.27;97652.68;105234;1302;25260;-77
2022/10/18 02:22:59;;;;;;;6.40;4.00;;;;;;;14.31;65.22;97654.02;105295;1279;25399;-77
2022/10/18 02:25:33;;;;;;;6.00;3.80;;;;;;;14.29;65.26;97663.00;105303;1295;26573;-77
2022/10/18 02:28:05;;;;;;;6.90;4.00;;;;;;;14.25;65.27;97663.84;105257;1301;24250;-77
2022/10/18 02:30:41;;;;;;;5.30;3.40;;;;;;;14.25;65.16;97663.30;105200;1288;22466;-77
2022/10/18 02:33:17;;;;;;;6.90;3.60;;;;;;;14.29;64.87;97661.41;105246;1295;23286;-77
2022/10/18 02:35:52;;;;;;;6.50;4.10;;;;;;;14.43;64.36;97661.55;105257;1281;22553;-77
2022/10/18 02:38:27;;;;;;;6.00;3.90;;;;;;;14.50;64.02;97672.08;105259;1295;22453;-77
2022/10/18 02:41:01;;;;;;;6.30;3.80;;;;;;;14.51;63.90;97671.34;105277;1288;22552;-77
2022/10/18 02:43:34;;;;;;;4.90;3.60;;;;;;;14.55;63.62;97673.70;105308;1272;22466;-77
2022/10/18 02:46:05;;;;;;;4.90;3.40;;;;;;;14.58;63.38;97677.91;105307;1289;22472;-77
2022/10/18 02:48:36;;;;;;;5.70;3.80;;;;;;;14.59;63.32;97674.10;105197;1279;22472;-77
2022/10/18 02:51:08;;;;;;;4.70;3.30;;;;;;;14.58;63.26;97677.42;105147;1288;22719;-77
2022/10/18 02:53:39;;;;;;;5.80;3.70;;;;;;;14.55;63.20;97675.67;105199;1296;26259;-77
2022/10/18 02:56:10;;;;;;;4.30;3.20;;;;;;;14.53;63.17;97675.23;105193;1297;24411;-77
2022/10/18 02:58:41;;;;;;;5.50;3.10;;;;;;;14.49;63.25;97678.54;105158;1303;22487;-77
2022/10/18 03:01:12;;;;;;;5.30;3.60;;;;;;;14.49;63.17;97684.58;105178;1290;22489;-77
2022/10/18 03:03:43;;;;;;;4.70;3.60;;;;;;;14.56;63.07;97682.57;105200;1301;22489;-77
2022/10/18 03:06:16;;;;;;;7.20;4.30;;;;;;;14.53;62.99;97684.83;105238;1279;25332;-77
2022/10/18 03:08:48;;;;;;;5.60;4.30;;;;;;;14.45;63.14;97681.77;105286;1303;22488;-77
2022/10/18 03:11:19;;;;;;;6.00;4.10;;;;;;;14.38;63.22;97681.41;105271;1302;22484;-77
2022/10/18 03:13:50;;;;;;;5.50;4.10;;;;;;;14.32;63.34;97682.63;105276;1301;22751;-77
2022/10/18 03:16:21;;;;;;;6.00;4.00;;;;;;;14.25;63.43;97676.53;105214;1286;22558;-77
2022/10/18 03:18:52;;;;;;;6.40;4.20;;;;;;;14.27;63.65;97681.86;105192;1303;22497;-77
2022/10/18 03:21:24;;;;;;;6.10;4.40;;;;;;;14.25;63.65;97678.02;105185;1288;22474;-77
2022/10/18 03:23:55;;;;;;;7.10;3.50;;;;;;;14.22;63.70;97676.13;105156;1301;22503;-78
2022/10/18 03:26:26;;;;;;;5.30;3.40;;;;;;;14.16;63.91;97673.53;105229;1278;22472;-77
2022/10/18 03:28:58;;;;;;;7.10;3.80;;;;;;;14.12;63.93;97678.09;105240;1303;23316;-77
2022/10/18 03:31:29;;;;;;;7.60;4.00;;;;;;;14.08;64.19;97680.30;105293;1288;22461;-77
2022/10/18 03:34:03;;;;;;;7.20;4.30;;;;;;;14.06;64.25;97681.89;105237;1303;26671;-77
2022/10/18 03:36:34;;;;;;;5.20;4.00;;;;;;;14.05;64.27;97684.84;105312;1288;22467;-77
2022/10/18 03:39:05;;;;;;;5.90;4.10;;;;;;;14.03;64.24;97686.66;105224;1302;25450;-77
2022/10/18 03:41:36;;;;;;;4.80;3.30;;;;;;;13.99;64.32;97685.61;105303;1288;22517;-77
2022/10/18 03:44:07;;;;;;;7.00;3.90;;;;;;;14.00;64.47;97681.35;105304;1295;22462;-77
2022/10/18 03:46:38;;;;;;;6.10;3.90;;;;;;;14.01;64.38;97684.33;105266;1302;22461;-77
2022/10/18 03:49:10;;;;;;;4.80;3.60;;;;;;;14.03;64.40;97678.77;105200;1280;22468;-77
2022/10/18 03:51:41;;;;;;;6.10;4.10;;;;;;;14.02;64.45;97679.84;105319;1301;22513;-77
2022/10/18 03:54:12;;;;;;;4.90;3.70;;;;;;;13.99;64.44;97684.70;105238;1278;25338;-77
2022/10/18 03:56:43;;;;;;;4.20;3.40;;;;;;;13.95;64.58;97681.95;105198;1303;22551;-77
2022/10/18 03:59:15;;;;;;;6.20;4.40;;;;;;;13.92;64.65;97679.77;105218;1289;25303;-77
2022/10/18 04:01:46;;;;;;;7.80;4.20;;;;;;;13.91;64.59;97684.20;105261;1294;22466;-77
2022/10/18 04:04:17;;;;;;;9.10;5.00;;;;;;;13.90;64.60;97682.23;105283;1303;22461;-77
2022/10/18 04:06:48;;;;;;;6.70;4.10;;;;;;;13.86;64.68;97681.94;105281;1303;24401;-77
2022/10/18 04:09:20;;;;;;;15.70;9.60;;;;;;;13.84;64.76;97681.79;105205;1295;22472;-77
2022/10/18 04:11:53;;;;;;;11.10;6.00;;;;;;;13.79;64.84;97683.61;105184;1295;24379;-77
2022/10/18 04:14:24;;;;;;;5.60;3.80;;;;;;;13.70;64.83;97684.71;105154;1289;22467;-77
2022/10/18 04:16:55;;;;;;;7.50;4.10;;;;;;;13.63;65.06;97687.39;105178;1295;22523;-77
2022/10/18 04:19:26;;;;;;;6.60;4.40;;;;;;;13.57;65.07;97683.79;105192;1303;33961;-77
2022/10/18 04:21:57;;;;;;;4.50;3.70;;;;;;;13.55;65.44;97679.01;105268;1288;22475;-77
2022/10/18 04:24:28;;;;;;;22.00;12.00;;;;;;;13.60;65.56;97683.30;105305;1303;22460;-77
2022/10/18 04:26:59;;;;;;;5.10;3.60;;;;;;;13.65;65.57;97681.52;105306;1288;25288;-77
2022/10/18 04:29:30;;;;;;;4.60;3.30;;;;;;;13.74;65.49;97681.88;105235;1288;22468;-77
2022/10/18 04:32:01;;;;;;;5.60;3.90;;;;;;;13.82;65.41;97678.86;105179;1296;22480;-77
2022/10/18 04:34:33;;;;;;;4.80;4.00;;;;;;;13.84;65.22;97680.24;105168;1297;22540;-77
2022/10/18 04:37:04;;;;;;;4.60;3.70;;;;;;;13.85;65.24;97680.82;105196;1303;22470;-77
2022/10/18 04:39:35;;;;;;;5.10;3.30;;;;;;;13.85;65.17;97685.35;105130;1295;29069;-77
2022/10/18 04:42:06;;;;;;;6.20;3.70;;;;;;;13.83;65.19;97684.83;105172;1303;22474;-77
2022/10/18 04:44:37;;;;;;;7.10;3.50;;;;;;;13.78;65.14;97684.52;105172;1303;25508;-77
2022/10/18 04:47:11;;;;;;;5.10;3.90;;;;;;;13.75;65.23;97687.62;105177;1298;22472;-77
2022/10/18 04:49:42;;;;;;;6.20;3.50;;;;;;;13.75;65.24;97687.95;105160;1291;22483;-77
2022/10/18 04:52:14;;;;;;;4.00;3.00;;;;;;;13.79;65.34;97687.98;105204;1282;25280;-77
2022/10/18 04:54:45;;;;;;;4.20;3.50;;;;;;;13.80;65.14;97689.11;105175;1291;22490;-77
2022/10/18 04:57:16;;;;;;;6.70;3.60;;;;;;;13.77;65.13;97686.23;105206;1303;22450;-77
2022/10/18 04:59:47;;;;;;;3.80;3.40;;;;;;;13.75;65.09;97684.90;105162;1298;22470;-77
2022/10/18 05:02:19;;;;;;;4.60;3.60;;;;;;;13.75;65.09;97681.50;105308;1295;22461;-77
2022/10/18 05:04:50;;;;;;;5.60;4.00;;;;;;;13.73;65.00;97677.40;105311;1303;22474;-77
2022/10/18 05:07:21;;;;;;;4.40;3.20;;;;;;;13.70;65.03;97682.11;105295;1303;22497;-77
2022/10/18 05:09:52;;;;;;;4.60;3.50;;;;;;;13.67;65.08;97673.21;105216;1288;25298;-77
2022/10/18 05:12:23;;;;;;;6.30;3.70;;;;;;;13.67;65.11;97673.96;105289;1295;22469;-77
2022/10/18 05:14:54;;;;;;;4.10;3.30;;;;;;;13.68;64.93;97672.41;105322;1303;24262;-77
2022/10/18 05:17:26;;;;;;;5.50;3.60;;;;;;;13.68;64.98;97671.45;105279;1303;24334;-77
2022/10/18 05:19:58;;;;;;;6.70;3.70;;;;;;;13.69;64.78;97669.75;105170;1303;25201;-77
2022/10/18 05:22:29;;;;;;;3.60;3.30;;;;;;;13.70;64.83;97668.14;105202;1303;22464;-77
2022/10/18 05:25:00;;;;;;;4.90;3.40;;;;;;;13.74;64.71;97667.44;105177;1302;22516;-77
2022/10/18 05:27:31;;;;;;;4.30;3.30;;;;;;;13.79;64.56;97660.79;105192;1300;22480;-77
2022/10/18 05:30:05;;;;;;;6.40;3.50;;;;;;;13.88;64.47;97661.09;105173;1288;25423;-77
2022/10/18 05:32:36;;;;;;;4.50;3.40;;;;;;;14.24;64.25;97660.84;105162;1296;22565;-77
2022/10/18 05:35:09;;;;;;;4.10;3.30;;;;;;;14.67;63.23;97653.98;105204;1303;22503;-77
2022/10/18 05:37:40;;;;;;;4.00;3.00;;;;;;;15.02;62.39;97653.16;105176;1303;22495;-77
2022/10/18 05:40:13;;;;;;;4.70;3.10;;;;;;;15.27;61.48;97651.91;105155;1295;22456;-77
2022/10/18 05:42:44;;;;;;;4.70;3.40;;;;;;;15.43;60.36;97649.71;105205;1303;22474;-77
2022/10/18 05:45:15;;;;;;;3.30;3.00;;;;;;;15.58;59.75;97649.45;105302;1288;22464;-77
2022/10/18 05:47:46;;;;;;;3.20;2.80;;;;;;;15.79;59.08;97653.71;105278;1303;25827;-77
2022/10/18 05:50:17;;;;;;;4.90;3.80;;;;;;;16.06;58.87;97661.41;105379;1289;22478;-77
2022/10/18 05:52:49;;;;;;;5.70;3.40;;;;;;;16.44;58.21;97662.59;105422;1284;22526;-78
2022/10/18 05:55:20;;;;;;;4.80;2.90;;;;;;;16.70;56.75;97660.89;105310;1279;23805;-77
2022/10/18 05:57:52;;;;;;;4.00;2.80;;;;;;;16.81;55.67;97659.81;105326;1303;22479;-78
2022/10/18 06:00:23;;;;;;;4.40;3.10;;;;;;;16.74;55.38;97663.73;105209;1284;25283;-77
2022/10/18 06:02:57;;;;;;;4.90;3.00;;;;;;;16.66;55.86;97667.52;105181;1295;22651;-77
2022/10/18 06:05:30;;;;;;;4.00;2.80;;;;;;;16.75;55.70;97668.96;105182;1303;25461;-77
2022/10/18 06:08:03;;;;;;;6.40;2.90;;;;;;;16.78;55.13;97674.80;105151;1295;24291;-77
2022/10/18 06:10:38;;;;;;;4.10;2.80;;;;;;;17.04;55.06;97679.70;105240;1302;22506;-77
2022/10/18 06:13:09;;;;;;;4.30;2.80;;;;;;;17.48;54.29;97685.67;105325;1294;24268;-77
2022/10/18 06:15:40;;;;;;;4.00;2.70;;;;;;;17.81;53.53;97691.85;105351;1283;22459;-78
2022/10/18 06:18:11;;;;;;;5.60;3.10;;;;;;;17.92;52.84;97691.33;105348;1288;22907;-78
2022/10/18 06:20:43;;;;;;;4.40;2.50;;;;;;;18.39;53.01;97698.42;105249;1297;24333;-78
2022/10/18 06:23:14;;;;;;;3.50;3.00;;;;;;;18.84;51.31;97698.46;105310;1301;22468;-78
2022/10/18 06:25:45;;;;;;;6.00;2.80;;;;;;;18.85;50.42;97699.56;105321;1301;25332;-77
2022/10/18 06:28:16;;;;;;;3.10;2.20;;;;;;;19.22;50.36;97699.53;105332;1302;22478;-76
2022/10/18 06:30:47;;;;;;;4.70;3.10;;;;;;;19.72;50.26;97697.61;105119;1303;22493;-76
2022/10/18 06:33:18;;;;;;;4.50;2.70;;;;;;;20.27;49.53;97691.72;105179;1287;22509;-77
2022/10/18 06:35:58;;;;;;;3.10;2.60;;;;;;;20.90;49.30;97691.10;105211;1303;23540;-77
2022/10/18 06:38:30;;;;;;;3.30;2.90;;;;;;;21.47;47.67;97692.61;105173;1303;22504;-77
2022/10/18 06:41:02;;;;;;;4.30;2.70;;;;;;;21.78;46.43;97690.30;105221;1303;22872;-77
2022/10/18 06:43:34;;;;;;;3.90;2.90;;;;;;;21.55;45.80;97691.48;105216;1296;22526;-77
2022/10/18 06:46:07;;;;;;;4.30;2.90;;;;;;;21.58;45.25;97687.66;105175;1294;22489;-77
2022/10/18 06:48:40;;;;;;;4.70;2.70;;;;;;;21.99;45.31;97687.36;105152;1288;24957;-77
2022/10/18 06:51:11;;;;;;;4.40;2.70;;;;;;;22.38;44.35;97688.23;105274;1295;22488;-76
2022/10/18 06:53:42;;;;;;;3.30;2.40;;;;;;;22.85;44.24;97689.19;105302;1302;22485;-77
2022/10/18 06:56:16;;;;;;;4.30;2.70;;;;;;;23.44;43.21;97689.58;105287;1288;25338;-77
2022/10/18 06:58:47;;;;;;;3.20;2.70;;;;;;;23.97;42.65;97685.36;105240;1286;56120;-77
2022/10/18 07:01:19;;;;;;;3.00;2.70;;;;;;;24.10;41.48;97683.92;105231;1289;22481;-77
2022/10/18 07:03:53;;;;;;;4.00;2.50;;;;;;;24.12;40.86;97685.86;105179;1303;22474;-76
2022/10/18 07:06:25;;;;;;;4.20;2.60;;;;;;;24.18;40.37;97686.85;105185;1285;22482;-77
2022/10/18 07:08:56;;;;;;;4.30;2.70;;;;;;;24.02;39.47;97690.80;105134;1295;22503;-77
2022/10/18 07:11:28;;;;;;;3.90;2.80;;;;;;;23.76;40.32;97691.59;105258;1297;22465;-77
2022/10/18 07:14:03;;;;;;;3.20;2.70;;;;;;;24.34;40.36;97687.14;105245;1293;22473;-77
2022/10/18 07:16:38;;;;;;;4.40;2.60;;;;;;;24.81;39.56;97686.97;105284;1297;22513;-77
2022/10/18 07:19:09;;;;;;;3.90;2.80;;;;;;;24.79;38.85;97685.29;105249;1303;27610;-77
2022/10/18 07:21:40;;;;;;;3.90;2.80;;;;;;;25.07;38.97;97685.01;105305;1295;22475;-77
2022/10/18 07:24:12;;;;;;;3.30;2.60;;;;;;;24.89;38.36;97681.86;105282;1295;22457;-77
2022/10/18 07:26:44;;;;;;;3.40;2.90;;;;;;;24.94;38.05;97687.11;105263;1302;22537;-77
2022/10/18 07:29:17;;;;;;;5.60;3.00;;;;;;;25.04;38.45;97686.98;105216;1279;25540;-77
2022/10/18 07:31:48;;;;;;;2.70;2.50;;;;;;;25.42;37.85;97681.90;105318;1289;22477;-77
2022/10/18 07:34:19;;;;;;;3.10;2.80;;;;;;;25.76;37.21;97678.59;105268;1279;22529;-77
2022/10/18 07:36:50;;;;;;;4.50;2.90;;;;;;;25.69;36.65;97672.36;105229;1289;22525;-77
2022/10/18 07:39:21;;;;;;;4.30;3.10;;;;;;;25.79;36.69;97671.13;105253;1302;22474;-78
2022/10/18 07:41:53;;;;;;;5.70;3.50;;;;;;;25.83;36.06;97672.40;105280;1302;22635;-78
2022/10/18 07:44:25;;;;;;;6.60;3.30;;;;;;;25.90;36.44;97671.77;105297;1302;22602;-78
2022/10/18 07:46:56;;;;;;;4.60;3.40;;;;;;;26.47;36.60;97666.48;105259;1303;22470;-77
2022/10/18 07:49:27;;;;;;;3.30;3.00;;;;;;;26.47;35.54;97667.73;105271;1279;24844;-77
2022/10/18 07:51:58;;;;;;;3.60;2.70;;;;;;;26.54;35.45;97664.77;105294;1288;22507;-77
2022/10/18 07:54:29;;;;;;;4.90;2.70;;;;;;;26.31;34.99;97661.38;105279;1281;22487;-77
2022/10/18 07:57:00;;;;;;;3.50;2.70;;;;;;;25.68;34.99;97661.77;105289;1303;22501;-77
2022/10/18 07:59:31;;;;;;;5.50;3.20;;;;;;;25.22;34.46;97658.66;105239;1285;25681;-77
2022/10/18 08:02:02;;;;;;;5.50;2.80;;;;;;;24.20;35.51;97657.42;105269;1303;22474;-78
2022/10/18 08:04:34;;;;;;;5.10;2.90;;;;;;;24.09;36.69;97654.47;105302;1302;22590;-78
2022/10/18 08:07:05;;;;;;;4.20;3.20;;;;;;;24.31;36.37;97650.12;105264;1295;22471;-78
2022/10/18 08:09:36;;;;;;;5.10;3.10;;;;;;;24.23;36.48;97645.83;105242;1288;23709;-79
2022/10/18 08:12:08;;;;;;;3.50;2.80;;;;;;;24.46;36.52;97643.20;105253;1289;22464;-79
2022/10/18 08:14:39;;;;;;;4.30;2.90;;;;;;;24.37;36.21;97642.95;105323;1303;22533;-79
2022/10/18 08:17:10;;;;;;;5.40;2.90;;;;;;;24.40;36.51;97640.79;105273;1302;22464;-79
2022/10/18 08:19:42;;;;;;;5.60;3.20;;;;;;;24.54;36.14;97644.83;105206;1288;22467;-79
2022/10/18 08:22:13;;;;;;;6.10;2.90;;;;;;;24.30;36.49;97640.79;105308;1303;22470;-78
2022/10/18 08:24:44;;;;;;;4.30;2.90;;;;;;;24.26;37.04;97640.66;105281;1287;22978;-78
2022/10/18 08:27:15;;;;;;;4.00;3.00;;;;;;;24.09;37.10;97640.61;105280;1289;22470;-78
2022/10/18 08:29:50;;;;;;;3.40;2.50;;;;;;;23.93;37.10;97640.58;105241;1282;22481;-78
2022/10/18 08:32:21;;;;;;;6.70;3.30;;;;;;;23.55;37.59;97638.35;105270;1296;22515;-78
2022/10/18 08:34:52;;;;;;;5.90;3.50;;;;;;;23.23;38.43;97638.61;105271;1280;22459;-78
2022/10/18 08:37:23;;;;;;;4.60;3.10;;;;;;;22.58;38.95;97639.30;105275;1281;25373;-78
2022/10/18 08:39:56;;;;;;;5.10;3.20;;;;;;;22.26;39.65;97637.97;105178;1289;24242;-77
2022/10/18 08:42:46;;;;;;;5.20;3.60;;;;;;;21.72;40.13;97632.16;105243;1302;22462;-77
2022/10/18 08:45:17;;;;;;;4.00;3.30;;;;;;;20.86;41.42;97627.58;105293;1303;22466;-78
2022/10/18 08:47:52;;;;;;;4.20;3.00;;;;;;;20.60;42.21;97624.67;105266;1294;22905;-78
2022/10/18 08:50:27;;;;;;;5.20;3.20;;;;;;;20.46;43.19;97620.59;105272;1303;24327;-78
2022/10/18 08:53:06;;;;;;;5.10;3.50;;;;;;;20.57;43.33;97622.17;105303;1303;22576;-78
2022/10/18 08:55:43;;;;;;;3.70;3.30;;;;;;;20.61;43.55;97623.80;105283;1291;22481;-78
2022/10/18 08:58:19;;;;;;;4.70;3.30;;;;;;;20.46;43.40;97621.44;105237;1282;22469;-78
2022/10/18 09:01:03;;;;;;;6.20;3.50;;;;;;;20.35;43.74;97617.77;105304;1288;31876;-78
2022/10/18 09:03:48;;;;;;;4.00;2.70;;;;;;;20.32;43.37;97616.88;105241;1303;25592;-78
2022/10/18 09:06:26;;;;;;;4.10;3.40;;;;;;;20.20;43.85;97618.02;105259;1281;22460;-78
2022/10/18 09:09:19;;;;;;;5.30;3.40;;;;;;;20.30;44.42;97605.60;105190;1303;23323;-78
2022/10/18 09:12:03;;;;;;;4.90;3.10;;;;;;;20.44;44.01;97606.54;105256;1285;22481;-78
2022/10/18 09:15:04;;;;;;;5.10;2.90;;;;;;;20.37;43.89;97605.23;105292;1279;22480;-78
2022/10/18 09:17:47;;;;;;;4.40;3.60;;;;;;;20.29;43.59;97601.82;105271;1288;22468;-78
2022/10/18 09:20:24;;;;;;;4.30;3.30;;;;;;;20.24;43.71;97597.05;105229;1271;23904;-78
2022/10/18 09:23:00;;;;;;;3.40;2.90;;;;;;;20.21;43.66;97597.36;105295;1301;22458;-78
2022/10/18 09:25:37;;;;;;;6.10;3.40;;;;;;;20.17;43.74;97603.89;105305;1303;22742;-78
2022/10/18 09:28:24;;;;;;;5.40;3.10;;;;;;;20.20;43.87;97592.01;105312;1303;22461;-78
2022/10/18 09:31:05;;;;;;;5.80;3.20;;;;;;;20.23;44.01;97589.60;105250;1302;33259;-78
2022/10/18 09:33:48;;;;;;;5.80;3.50;;;;;;;20.27;44.10;97586.86;105266;1295;22488;-78
2022/10/18 09:36:23;;;;;;;5.40;3.20;;;;;;;20.36;44.10;97579.58;105252;1281;22471;-78
2022/10/18 09:38:57;;;;;;;5.80;3.30;;;;;;;20.47;44.18;97580.15;105209;1303;22498;-78
2022/10/18 09:41:34;;;;;;;3.50;2.80;;;;;;;20.67;44.32;97575.34;105219;1294;22481;-78
2022/10/18 09:44:10;;;;;;;4.70;3.40;;;;;;;20.88;44.52;97569.60;105256;1303;24280;-78
2022/10/18 09:46:49;;;;;;;3.70;2.80;;;;;;;21.06;44.37;97561.64;105294;1303;22533;-78
2022/10/18 09:49:27;;;;;;;4.90;3.60;;;;;;;21.16;43.78;97562.91;105257;1288;22482;-78
2022/10/18 09:52:01;;;;;;;4.30;3.50;;;;;;;21.23;43.26;97562.65;105223;1289;22635;-78
2022/10/18 09:54:36;;;;;;;4.90;3.40;;;;;;;21.25;43.20;97557.17;105316;1294;22459;-78
2022/10/18 09:57:16;;;;;;;3.90;3.30;;;;;;;21.29;43.15;97552.67;105352;1301;24281;-78
2022/10/18 09:59:48;;;;;;;3.60;3.00;;;;;;;21.27;43.03;97551.39;105315;1303;22435;-79
2022/10/18 10:02:21;;;;;;;4.80;3.10;;;;;;;21.38;43.74;97551.31;105291;1302;22732;-79
2022/10/18 10:04:55;;;;;;;4.40;3.20;;;;;;;21.56;43.06;97551.11;105230;1303;22466;-79
2022/10/18 10:07:34;;;;;;;5.80;3.30;;;;;;;21.58;42.69;97546.33;105128;1288;22463;-79
2022/10/18 10:10:13;;;;;;;3.40;2.70;;;;;;;21.60;42.29;97541.80;105270;1303;22696;-78
2022/10/18 10:12:45;;;;;;;3.60;2.80;;;;;;;21.56;42.28;97538.56;105287;1303;24324;-78
2022/10/18 10:15:22;;;;;;;5.30;3.10;;;;;;;21.61;41.69;97533.04;105322;1301;22486;-79
2022/10/18 10:18:00;;;;;;;4.10;2.80;;;;;;;21.60;42.29;97526.82;105242;1303;24279;-79
2022/10/18 10:20:41;;;;;;;4.60;3.00;;;;;;;21.70;42.39;97525.74;105279;1288;22533;-78
2022/10/18 10:23:21;;;;;;;4.60;3.10;;;;;;;21.67;41.28;97524.65;105285;1291;22473;-78
2022/10/18 10:25:56;;;;;;;3.50;2.80;;;;;;;21.55;41.35;97521.23;105222;1299;22477;-78
2022/10/18 10:28:30;;;;;;;3.70;3.00;;;;;;;21.51;40.79;97511.27;105189;1295;22494;-78
2022/10/18 10:31:27;;;;;;;4.00;2.80;;;;;;;21.56;40.67;97508.63;105212;1303;22465;-78
2022/10/18 10:34:04;;;;;;;5.80;3.30;;;;;;;21.60;41.10;97503.84;105245;1303;22479;-78
2022/10/18 10:36:46;;;;;;;4.60;3.30;;;;;;;21.68;40.60;97504.86;105252;1289;23669;-78
2022/10/18 10:39:18;;;;;;;5.00;3.20;;;;;;;21.52;40.76;97501.28;105314;1303;22537;-78
2022/10/18 10:41:52;;;;;;;4.70;2.70;;;;;;;21.50;40.98;97493.45;105250;1279;22469;-78
2022/10/18 10:44:26;;;;;;;4.30;2.90;;;;;;;21.57;41.00;97490.87;105331;1288;22465;-78
2022/10/18 10:47:00;;;;;;;4.70;2.90;;;;;;;21.72;41.18;97483.49;105197;1303;26315;-78
2022/10/18 10:49:46;;;;;;;4.70;3.30;;;;;;;21.77;40.17;97478.98;105272;1302;22487;-78
2022/10/18 10:52:21;;;;;;;5.20;3.20;;;;;;;21.73;40.21;97478.02;105282;1294;22475;-78
2022/10/18 10:54:54;;;;;;;5.40;3.30;;;;;;;21.80;41.20;97473.15;105263;1292;22471;-78
2022/10/18 10:57:28;;;;;;;5.00;3.20;;;;;;;21.96;41.34;97467.55;105200;1280;25214;-79
2022/10/18 11:00:00;;;;;;;5.40;2.40;;;;;;;22.11;40.81;97463.71;105241;1300;22576;-78
2022/10/18 11:02:34;;;;;;;3.30;2.30;;;;;;;22.14;38.73;97453.01;105181;1302;22439;-78
2022/10/18 11:05:24;;;;;;;3.00;2.30;;;;;;;22.08;38.12;97449.48;105292;1295;22490;-78
2022/10/18 11:07:59;;;;;;;4.50;2.40;;;;;;;22.07;37.61;97445.05;105367;1301;35649;-78
2022/10/18 11:10:40;;;;;;;4.80;2.60;;;;;;;22.05;37.45;97438.38;105390;1303;22545;-78
2022/10/18 11:13:23;;;;;;;3.70;2.50;;;;;;;22.18;38.10;97433.10;105370;1304;24842;-78
2022/10/18 11:16:00;;;;;;;4.60;2.80;;;;;;;22.31;38.47;97435.79;105281;1303;22511;-78
2022/10/18 11:18:35;;;;;;;3.80;2.10;;;;;;;22.44;37.84;97423.88;105277;1288;22493;-78
2022/10/18 11:21:11;;;;;;;4.80;2.70;;;;;;;22.39;35.97;97422.08;105233;1298;22520;-78
2022/10/18 11:23:45;;;;;;;4.10;2.00;;;;;;;22.30;36.07;97416.38;105255;1303;22462;-78
2022/10/18 11:26:40;;;;;;;2.80;2.00;;;;;;;22.28;35.59;97413.61;105116;1304;22494;-78
2022/10/18 11:29:31;;;;;;;3.10;2.30;;;;;;;22.20;34.00;97409.70;105287;1303;22482;-78
2022/10/18 11:32:16;;;;;;;3.40;2.00;;;;;;;22.13;33.94;97407.61;105246;1303;22456;-78
2022/10/18 11:35:04;;;;;;;3.20;1.50;;;;;;;22.18;34.54;97402.39;105264;1281;22505;-77
2022/10/18 11:38:03;;;;;;;3.90;1.90;;;;;;;22.21;34.03;97398.39;105135;1299;22510;-78
2022/10/18 11:40:53;;;;;;;3.30;1.90;;;;;;;22.31;33.86;97390.41;105178;1304;22584;-77
2022/10/18 11:43:31;;;;;;;7.10;3.50;;;;;;;22.28;33.34;97387.52;105145;1303;22518;-78
2022/10/18 11:46:11;;;;;;;4.40;2.20;;;;;;;22.38;34.55;97387.59;105101;1303;22483;-78
2022/10/18 11:49:09;;;;;;;5.50;3.30;;;;;;;22.47;33.10;97382.04;105165;1304;22784;-78
2022/10/18 11:51:55;;;;;;;5.90;2.60;;;;;;;22.50;33.99;97380.07;105213;1291;22946;-78
2022/10/18 11:54:41;;;;;;;2.80;1.90;;;;;;;22.54;33.17;97376.31;105232;1301;22513;-78
2022/10/18 11:57:27;;;;;;;3.50;2.50;;;;;;;22.49;33.18;97377.34;105159;1304;29512;-78
2022/10/18 12:00:08;;;;;;;5.10;2.30;;;;;;;22.47;33.26;97371.30;105191;1306;22462;-78